createdAt,value
2023-04-29T00:00:27.809Z,72.44
2023-04-29T00:02:51.712Z,71.32
2023-04-29T00:05:15.770Z,73.27
2023-04-29T00:07:41.008Z,71.53
2023-04-29T00:10:05.026Z,72.02
2023-04-29T00:12:30.398Z,72.72
2023-04-29T00:14:53.948Z,72.23
2023-04-29T00:17:17.673Z,72.01
2023-04-29T00:19:41.335Z,71.45
2023-04-29T00:22:04.968Z,72.39
2023-04-29T00:24:30.051Z,71.52
2023-04-29T00:26:53.566Z,71.26
2023-04-29T00:29:17.245Z,73.09
2023-04-29T00:31:40.768Z,72.05
2023-04-29T00:34:04.446Z,72.59
2023-04-29T00:36:28.511Z,72.87
2023-04-29T00:38:52.045Z,72.37
2023-04-29T00:41:17.034Z,72.68
2023-04-29T00:43:40.846Z,72.16
2023-04-29T00:46:04.509Z,73.03
2023-04-29T00:48:28.099Z,70.72
2023-04-29T00:50:51.982Z,73.25
2023-04-29T00:53:15.786Z,73.67
2023-04-29T00:55:40.072Z,73.65
2023-04-29T00:58:05.124Z,72.73
2023-04-29T01:00:29.719Z,72.47
2023-04-29T01:02:57.083Z,71.50
2023-04-29T01:05:20.814Z,71.64
2023-04-29T01:07:57.952Z,73.12
2023-04-29T01:10:29.263Z,72.48
2023-04-29T01:13:01.900Z,74.75
2023-04-29T01:15:33.272Z,76.05
2023-04-29T01:18:01.909Z,76.49
2023-04-29T01:20:27.547Z,78.31
2023-04-29T01:22:51.292Z,75.44
2023-04-29T01:25:16.668Z,75.32
2023-04-29T01:28:30.352Z,78.59
2023-04-29T01:31:03.355Z,79.04
2023-04-29T01:33:36.238Z,78.22
2023-04-29T01:36:12.126Z,79.49
2023-04-29T01:38:43.375Z,77.83
2023-04-29T01:41:16.103Z,79.90
2023-04-29T01:43:42.238Z,80.14
2023-04-29T01:46:19.725Z,82.59
2023-04-29T01:48:43.741Z,83.58
2023-04-29T01:51:07.750Z,81.13
2023-04-29T01:53:31.575Z,83.12
2023-04-29T01:55:55.188Z,81.06
2023-04-29T01:58:40.108Z,80.12
2023-04-29T02:01:23.031Z,85.34
2023-04-29T02:03:46.826Z,81.79
2023-04-29T02:06:12.382Z,81.83
2023-04-29T02:08:36.152Z,81.37
2023-04-29T02:11:01.001Z,84.22
2023-04-29T02:13:39.736Z,85.11
2023-04-29T02:16:10.496Z,82.63
2023-04-29T02:18:36.593Z,82.78
2023-04-29T02:21:02.769Z,85.94
2023-04-29T02:23:30.376Z,82.80
2023-04-29T02:25:54.197Z,86.99
2023-04-29T02:28:17.904Z,85.19
2023-04-29T02:30:42.864Z,84.30
2023-04-29T02:33:08.396Z,84.58
2023-04-29T02:35:32.334Z,82.32
2023-04-29T02:37:56.466Z,85.32
2023-04-29T02:40:20.109Z,85.10
2023-04-29T02:42:43.757Z,86.92
2023-04-29T02:45:09.345Z,84.95
2023-04-29T02:47:34.407Z,83.58
2023-04-29T02:49:58.003Z,83.63
2023-04-29T02:52:21.601Z,90.76
2023-04-29T02:54:45.965Z,87.12
2023-04-29T02:57:09.593Z,89.41
2023-04-29T02:59:33.132Z,86.39
2023-04-29T03:01:57.051Z,84.88
2023-04-29T03:04:22.352Z,87.40
2023-04-29T03:06:46.149Z,86.62
2023-04-29T03:09:10.280Z,84.37
2023-04-29T03:11:33.832Z,87.32
2023-04-29T03:13:57.919Z,88.81
2023-04-29T03:16:22.154Z,88.26
2023-04-29T03:18:46.258Z,87.73
2023-04-29T03:21:11.453Z,87.63
2023-04-29T03:23:35.005Z,85.93
2023-04-29T03:26:00.734Z,91.00
2023-04-29T03:28:24.384Z,89.08
2023-04-29T03:30:48.318Z,90.94
2023-04-29T03:33:11.866Z,94.33
2023-04-29T03:35:35.619Z,92.66
2023-04-29T03:38:09.284Z,90.71
2023-04-29T03:40:34.482Z,89.72
2023-04-29T03:42:58.128Z,92.39
2023-04-29T03:45:21.955Z,92.32
2023-04-29T03:47:45.617Z,90.43
2023-04-29T03:50:10.250Z,89.82
2023-04-29T03:52:36.428Z,91.53
2023-04-29T03:55:07.292Z,93.62
2023-04-29T03:57:31.152Z,90.67
2023-04-29T03:59:55.273Z,90.88
2023-04-29T04:02:20.662Z,88.38
2023-04-29T04:04:44.532Z,94.26
2023-04-29T04:07:08.258Z,93.24
2023-04-29T04:09:50.499Z,90.23
2023-04-29T04:12:15.740Z,90.24
2023-04-29T04:14:39.285Z,93.14
2023-04-29T04:17:02.940Z,95.00
2023-04-29T04:19:27.133Z,95.94
2023-04-29T04:21:50.962Z,94.96
2023-04-29T04:24:15.042Z,95.07
2023-04-29T04:26:39.096Z,96.08
2023-04-29T04:29:14.244Z,94.75
2023-04-29T04:31:56.200Z,94.47
2023-04-29T04:34:21.012Z,94.33
2023-04-29T04:36:47.130Z,94.85
2023-04-29T04:39:10.793Z,93.79
2023-04-29T04:41:34.376Z,95.48
2023-04-29T04:44:00.287Z,96.32
2023-04-29T04:46:37.588Z,96.97
2023-04-29T04:49:08.278Z,94.48
2023-04-29T04:51:37.810Z,94.92
2023-04-29T04:54:01.394Z,95.73
2023-04-29T04:56:26.484Z,95.82
2023-04-29T04:58:50.091Z,97.40
2023-04-29T05:01:13.675Z,96.30
2023-04-29T05:03:38.939Z,96.70
2023-04-29T05:06:02.901Z,96.37
2023-04-29T05:08:27.670Z,96.26
2023-04-29T05:10:54.351Z,96.99
2023-04-29T05:13:18.510Z,97.30
2023-04-29T05:15:42.990Z,94.49
2023-04-29T05:18:06.873Z,93.53
2023-04-29T05:20:32.315Z,95.18
2023-04-29T05:22:58.046Z,96.13
2023-04-29T05:25:22.542Z,95.02
2023-04-29T05:27:46.323Z,94.62
2023-04-29T05:30:13.909Z,95.34
2023-04-29T05:32:37.707Z,96.97
2023-04-29T05:35:05.999Z,98.61
2023-04-29T05:37:32.630Z,97.55
2023-04-29T05:40:09.563Z,96.76
2023-04-29T05:42:33.350Z,94.17
2023-04-29T05:44:58.002Z,94.20
2023-04-29T05:47:21.690Z,96.41
2023-04-29T05:49:45.468Z,99.33
2023-04-29T05:52:09.421Z,98.67
2023-04-29T05:54:40.188Z,97.77
2023-04-29T05:57:04.484Z,96.14
2023-04-29T05:59:28.006Z,96.34
2023-04-29T06:01:52.239Z,96.64
2023-04-29T06:04:16.140Z,95.78
2023-04-29T06:06:58.965Z,94.27
2023-04-29T06:09:44.083Z,94.01
2023-04-29T06:12:08.037Z,94.43
2023-04-29T06:14:31.602Z,95.43
2023-04-29T06:16:55.876Z,93.67
2023-04-29T06:19:20.779Z,94.96
2023-04-29T06:21:45.298Z,93.98
2023-04-29T06:24:08.981Z,93.37
2023-04-29T06:26:34.099Z,94.34
2023-04-29T06:28:57.610Z,94.49
2023-04-29T06:31:23.075Z,94.03
2023-04-29T06:33:47.846Z,94.46
2023-04-29T06:36:12.964Z,95.20
2023-04-29T06:38:58.398Z,94.30
2023-04-29T06:41:37.991Z,95.27
2023-04-29T06:44:10.875Z,96.38
2023-04-29T06:46:44.078Z,94.57
2023-04-29T06:49:18.168Z,95.32
2023-04-29T06:51:42.858Z,96.13
2023-04-29T06:54:06.463Z,95.22
2023-04-29T06:56:30.102Z,96.56
2023-04-29T06:58:55.076Z,94.69
2023-04-29T07:01:18.640Z,95.18
2023-04-29T07:03:42.493Z,93.54
2023-04-29T07:06:06.312Z,96.39
2023-04-29T07:08:29.991Z,96.15
2023-04-29T07:10:57.712Z,95.30
2023-04-29T07:13:21.275Z,95.17
2023-04-29T07:15:47.890Z,94.68
2023-04-29T07:18:12.121Z,95.35
2023-04-29T07:20:38.557Z,95.17
2023-04-29T07:23:02.177Z,94.79
2023-04-29T07:25:25.949Z,94.29
2023-04-29T07:27:49.522Z,94.07
2023-04-29T07:30:13.469Z,94.90
2023-04-29T07:32:39.210Z,93.15
2023-04-29T07:35:02.858Z,95.04
2023-04-29T07:37:26.872Z,95.51
2023-04-29T07:39:50.550Z,96.43
2023-04-29T07:42:14.097Z,94.34
2023-04-29T07:44:38.644Z,94.06
2023-04-29T07:47:02.268Z,95.41
2023-04-29T07:49:27.321Z,94.45
2023-04-29T07:51:50.849Z,93.15
2023-04-29T07:54:14.521Z,92.37
2023-04-29T07:56:38.088Z,94.20
2023-04-29T07:59:02.251Z,92.98
2023-04-29T08:01:25.797Z,92.84
2023-04-29T08:03:49.645Z,91.59
2023-04-29T08:06:18.375Z,94.20
2023-04-29T08:08:42.571Z,92.12
2023-04-29T08:11:07.502Z,92.54
2023-04-29T08:13:34.222Z,91.85
2023-04-29T08:15:58.027Z,91.72
2023-04-29T08:18:22.448Z,90.69
2023-04-29T08:20:45.956Z,92.41
2023-04-29T08:23:11.561Z,92.92
2023-04-29T08:25:35.094Z,93.48
2023-04-29T08:27:58.675Z,93.53
2023-04-29T08:30:22.297Z,92.28
2023-04-29T08:32:46.167Z,92.51
2023-04-29T08:35:11.200Z,93.54
2023-04-29T08:37:34.786Z,93.63
2023-04-29T08:39:59.698Z,93.82
2023-04-29T08:42:36.380Z,93.22
2023-04-29T08:45:02.282Z,93.48
2023-04-29T08:47:25.929Z,93.67
2023-04-29T08:49:49.656Z,92.99
2023-04-29T08:52:13.174Z,93.66
2023-04-29T08:54:37.327Z,93.74
2023-04-29T08:57:02.828Z,96.43
2023-04-29T08:59:27.626Z,94.70
2023-04-29T09:01:54.438Z,94.19
2023-04-29T09:04:35.300Z,94.65
2023-04-29T09:07:00.739Z,94.63
2023-04-29T09:09:25.840Z,94.60
2023-04-29T09:11:49.445Z,95.04
2023-04-29T09:14:15.594Z,93.65
2023-04-29T09:16:39.262Z,95.47
2023-04-29T09:19:02.788Z,96.25
2023-04-29T09:21:28.267Z,95.67
2023-04-29T09:23:54.464Z,95.42
2023-04-29T09:26:18.533Z,94.21
2023-04-29T09:28:44.693Z,94.41
2023-04-29T09:31:09.673Z,94.57
2023-04-29T09:33:33.539Z,94.16
2023-04-29T09:35:57.162Z,93.65
2023-04-29T09:38:22.118Z,92.57
2023-04-29T09:40:57.268Z,92.10
2023-04-29T09:43:23.750Z,92.26
2023-04-29T09:45:49.332Z,91.00
2023-04-29T09:48:15.715Z,90.76
2023-04-29T09:50:40.676Z,90.43
2023-04-29T09:53:04.834Z,89.57
2023-04-29T09:55:29.311Z,89.32
2023-04-29T09:57:52.901Z,90.65
2023-04-29T10:00:16.666Z,90.81
2023-04-29T10:02:44.217Z,90.07
2023-04-29T10:05:10.946Z,89.31
2023-04-29T10:07:35.268Z,89.15
2023-04-29T10:09:58.783Z,89.02
2023-04-29T10:12:22.723Z,88.54
2023-04-29T10:14:55.176Z,86.95
2023-04-29T10:17:26.155Z,88.83
2023-04-29T10:19:55.578Z,88.52
2023-04-29T10:22:28.259Z,87.24
2023-04-29T10:24:53.882Z,86.69
2023-04-29T10:27:18.570Z,88.36
2023-04-29T10:29:44.774Z,87.50
2023-04-29T10:32:11.125Z,87.82
2023-04-29T10:34:35.636Z,86.70
2023-04-29T10:36:59.639Z,87.53
2023-04-29T10:39:34.873Z,86.47
2023-04-29T10:41:59.239Z,84.13
2023-04-29T10:44:24.105Z,86.13
2023-04-29T10:46:47.791Z,83.30
2023-04-29T10:49:12.866Z,84.21
2023-04-29T10:51:41.933Z,83.11
2023-04-29T10:54:10.652Z,81.75
2023-04-29T10:56:49.423Z,83.54
2023-04-29T10:59:17.169Z,81.42
2023-04-29T11:01:49.456Z,82.04
2023-04-29T11:04:13.252Z,81.02
2023-04-29T11:06:47.367Z,79.57
2023-04-29T11:09:14.668Z,79.83
2023-04-29T11:12:00.580Z,78.01
2023-04-29T11:14:27.866Z,75.80
2023-04-29T11:16:55.055Z,79.22
2023-04-29T11:19:18.919Z,77.21
2023-04-29T11:21:42.544Z,77.93
2023-04-29T11:24:08.162Z,75.59
2023-04-29T11:26:31.774Z,73.73
2023-04-29T11:28:59.399Z,75.35
2023-04-29T11:31:27.496Z,72.86
2023-04-29T11:33:52.536Z,74.50
2023-04-29T11:36:16.251Z,74.78
2023-04-29T11:38:42.205Z,73.79
2023-04-29T11:41:06.055Z,74.53
2023-04-29T11:43:29.759Z,71.87
2023-04-29T11:45:55.514Z,71.66
2023-04-29T11:48:20.072Z,73.12
2023-04-29T11:50:44.018Z,71.41
2023-04-29T11:53:07.756Z,71.19
2023-04-29T11:55:31.685Z,71.49
2023-04-29T11:57:55.430Z,70.92
2023-04-29T12:00:19.263Z,70.33
2023-04-29T12:02:49.058Z,71.99
2023-04-29T12:05:16.399Z,71.81
2023-04-29T12:07:42.033Z,72.48
2023-04-29T12:10:11.901Z,71.78
2023-04-29T12:12:37.346Z,73.14
2023-04-29T12:15:03.677Z,73.29
2023-04-29T12:17:27.689Z,71.97
2023-04-29T12:19:53.047Z,70.26
2023-04-29T12:22:16.627Z,70.71
2023-04-29T12:24:41.376Z,71.53
2023-04-29T12:27:05.901Z,68.94
2023-04-29T12:29:29.464Z,68.19
2023-04-29T12:31:53.344Z,69.57
2023-04-29T12:34:17.086Z,70.19
2023-04-29T12:36:43.797Z,71.02
2023-04-29T12:39:11.196Z,68.70
2023-04-29T12:41:39.310Z,70.44
2023-04-29T12:44:04.233Z,68.43
2023-04-29T12:46:27.811Z,68.51
2023-04-29T12:48:51.551Z,66.89
2023-04-29T12:51:15.278Z,68.91
2023-04-29T12:53:40.929Z,68.01
2023-04-29T12:56:04.813Z,68.20
2023-04-29T12:58:31.197Z,67.68
2023-04-29T13:00:54.777Z,67.56
2023-04-29T13:03:20.424Z,67.04
2023-04-29T13:05:48.601Z,66.73
2023-04-29T13:08:12.151Z,66.26
2023-04-29T13:10:37.362Z,67.82
2023-04-29T13:13:01.397Z,66.80
2023-04-29T13:15:24.993Z,66.83
2023-04-29T13:17:48.598Z,68.30
2023-04-29T13:20:13.542Z,66.34
2023-04-29T13:22:37.448Z,66.27
2023-04-29T13:25:01.256Z,65.75
2023-04-29T13:27:26.436Z,66.86
2023-04-29T13:29:50.413Z,64.28
2023-04-29T13:32:14.236Z,66.62
2023-04-29T13:34:38.034Z,66.61
2023-04-29T13:37:01.820Z,66.13
2023-04-29T13:39:25.724Z,63.95
2023-04-29T13:41:49.413Z,62.78
2023-04-29T13:46:40.830Z,60.45
2023-04-29T13:49:31.927Z,61.13
2023-04-29T13:52:22.087Z,62.63
2023-04-29T14:02:21.728Z,61.79
2023-04-29T14:04:36.957Z,62.08
2023-04-29T14:07:00.773Z,62.03
2023-04-29T14:09:24.869Z,63.33
2023-04-29T14:11:48.536Z,61.09
2023-04-29T14:14:12.138Z,61.21
2023-04-29T14:16:37.248Z,60.62
2023-04-29T14:19:03.564Z,59.58
2023-04-29T14:21:28.075Z,61.64
2023-04-29T14:23:51.953Z,60.21
2023-04-29T14:28:42.315Z,59.20
2023-04-29T14:31:06.435Z,58.64
2023-04-29T14:33:31.453Z,57.82
2023-04-29T14:35:55.397Z,56.90
2023-04-29T14:38:19.041Z,56.75
2023-04-29T14:40:42.554Z,58.21
2023-04-29T14:43:06.695Z,53.56
2023-04-29T14:45:30.229Z,54.39
2023-04-29T14:47:53.823Z,53.17
2023-04-29T14:50:18.858Z,55.31
2023-04-29T14:52:42.571Z,55.13
2023-04-29T14:55:07.894Z,54.19
2023-04-29T14:57:31.636Z,55.39
2023-04-29T14:59:55.244Z,55.67
2023-04-29T15:02:18.825Z,54.65
2023-04-29T15:04:45.697Z,54.46
2023-04-29T15:07:11.128Z,55.42
2023-04-29T15:09:34.735Z,54.88
2023-04-29T15:11:58.348Z,53.77
2023-04-29T15:14:21.907Z,57.34
2023-04-29T15:16:46.029Z,55.52
2023-04-29T15:19:09.672Z,54.57
2023-04-29T15:21:33.657Z,55.95
2023-04-29T15:23:58.575Z,55.69
2023-04-29T15:26:22.624Z,56.09
2023-04-29T15:28:46.797Z,55.31
2023-04-29T15:31:10.441Z,56.34
2023-04-29T15:33:34.443Z,56.49
2023-04-29T15:35:58.184Z,55.46
2023-04-29T15:38:21.698Z,54.89
2023-04-29T15:40:46.682Z,54.95
2023-04-29T15:43:10.201Z,55.29
2023-04-29T15:45:34.425Z,54.37
2023-04-29T15:47:57.997Z,53.77
2023-04-29T15:50:21.937Z,53.35
2023-04-29T15:52:45.480Z,53.51
2023-04-29T15:55:09.716Z,55.08
2023-04-29T15:57:40.901Z,55.79
2023-04-29T16:00:05.291Z,55.62
2023-04-29T16:02:28.955Z,55.42
2023-04-29T16:04:52.662Z,56.68
2023-04-29T16:07:16.345Z,55.16
2023-04-29T16:09:40.077Z,55.40
2023-04-29T16:12:03.841Z,55.51
2023-04-29T16:14:30.017Z,56.82
2023-04-29T16:16:53.698Z,55.87
2023-04-29T16:19:17.488Z,56.32
2023-04-29T16:21:41.515Z,56.62
2023-04-29T16:24:05.681Z,55.57
2023-04-29T16:26:29.415Z,54.30
2023-04-29T16:28:53.207Z,51.99
2023-04-29T16:31:19.986Z,52.94
2023-04-29T16:33:43.634Z,52.85
2023-04-29T16:36:07.862Z,47.44
2023-04-29T16:38:31.996Z,47.21
2023-04-29T16:40:55.978Z,44.82
2023-04-29T16:43:19.685Z,44.41
2023-04-29T16:45:43.314Z,44.80
2023-04-29T16:48:08.546Z,45.22
2023-04-29T16:50:32.120Z,45.20
2023-04-29T16:52:55.676Z,45.30
2023-04-29T16:55:19.408Z,46.53
2023-04-29T16:57:43.059Z,45.98
2023-04-29T17:00:10.194Z,46.47
2023-04-29T17:02:33.854Z,46.63
2023-04-29T17:04:58.972Z,48.49
2023-04-29T17:07:22.676Z,48.02
2023-04-29T17:09:47.312Z,46.61
2023-04-29T17:12:11.013Z,48.00
2023-04-29T17:14:34.826Z,47.96
2023-04-29T17:16:58.420Z,47.05
2023-04-29T17:19:21.992Z,47.08
2023-04-29T17:21:47.315Z,48.26
2023-04-29T17:24:10.831Z,47.42
2023-04-29T17:26:34.504Z,47.87
2023-04-29T17:28:58.887Z,47.43
2023-04-29T17:31:25.519Z,48.13
2023-04-29T17:33:55.225Z,47.26
2023-04-29T17:36:18.791Z,48.44
2023-04-29T17:38:43.673Z,47.57
2023-04-29T17:41:07.315Z,47.85
2023-04-29T17:43:33.237Z,47.05
2023-04-29T17:45:59.858Z,48.23
2023-04-29T17:48:23.419Z,48.36
2023-04-29T17:50:47.318Z,49.20
2023-04-29T17:53:10.917Z,48.64
2023-04-29T17:55:35.912Z,48.92
2023-04-29T17:57:59.426Z,47.24
2023-04-29T18:00:23.721Z,48.72
2023-04-29T18:02:47.349Z,47.26
2023-04-29T18:05:11.533Z,48.61
2023-04-29T18:07:35.112Z,47.12
2023-04-29T18:09:58.873Z,48.13
2023-04-29T18:12:24.183Z,47.98
2023-04-29T18:14:48.797Z,48.82
2023-04-29T18:17:12.348Z,47.59
2023-04-29T18:19:36.079Z,47.77
2023-04-29T18:22:01.385Z,48.30
2023-04-29T18:24:25.655Z,48.11
2023-04-29T18:26:49.188Z,48.97
2023-04-29T18:29:14.139Z,48.77
2023-04-29T18:31:37.959Z,49.29
2023-04-29T18:34:01.673Z,49.68
2023-04-29T18:36:25.188Z,49.45
2023-04-29T18:38:49.031Z,49.30
2023-04-29T18:41:13.167Z,49.50
2023-04-29T18:43:36.921Z,50.42
2023-04-29T18:46:02.239Z,50.50
2023-04-29T18:48:27.692Z,51.63
2023-04-29T18:50:53.404Z,50.53
2023-04-29T18:53:16.990Z,51.07
2023-04-29T18:55:40.608Z,52.26
2023-04-29T18:58:04.334Z,51.78
2023-04-29T19:00:27.938Z,51.47
2023-04-29T19:02:52.916Z,51.80
2023-04-29T19:05:16.495Z,52.08
2023-04-29T19:07:40.176Z,52.88
2023-04-29T19:10:03.961Z,52.42
2023-04-29T19:12:27.656Z,52.22
2023-04-29T19:14:51.220Z,54.55
2023-04-29T19:17:14.812Z,54.78
2023-04-29T19:19:39.763Z,56.04
2023-04-29T19:22:05.334Z,55.95
2023-04-29T19:24:28.902Z,55.87
2023-04-29T19:26:52.479Z,56.44
2023-04-29T19:29:16.144Z,56.53
2023-04-29T19:31:39.807Z,58.18
2023-04-29T19:34:03.644Z,57.87
2023-04-29T19:36:28.657Z,59.08
2023-04-29T19:38:52.185Z,59.85
2023-04-29T19:41:15.952Z,58.77
2023-04-29T19:43:39.577Z,59.60
2023-04-29T19:46:03.193Z,60.12
2023-04-29T19:48:26.811Z,60.51
2023-04-29T19:50:50.515Z,60.64
2023-04-29T19:53:15.447Z,59.95
2023-04-29T19:55:40.217Z,60.62
2023-04-29T19:58:03.827Z,61.13
2023-04-29T20:00:27.536Z,61.61
2023-04-29T20:02:52.282Z,61.78
2023-04-29T20:05:16.395Z,61.12
2023-04-29T20:07:40.228Z,62.12
2023-04-29T20:10:06.100Z,62.87
2023-04-29T20:12:29.660Z,62.29
2023-04-29T20:14:53.315Z,62.92
2023-04-29T20:17:17.822Z,62.68
2023-04-29T20:19:41.554Z,63.15
2023-04-29T20:22:05.103Z,64.55
2023-04-29T20:24:28.718Z,64.47
2023-04-29T20:26:53.668Z,64.34
2023-04-29T20:29:17.224Z,64.95
2023-04-29T20:31:40.870Z,65.24
2023-04-29T20:34:04.498Z,66.17
2023-04-29T20:36:28.729Z,66.38
2023-04-29T20:38:52.688Z,65.80
2023-04-29T20:41:16.383Z,66.55
2023-04-29T20:43:41.348Z,67.29
2023-04-29T20:46:04.977Z,67.28
2023-04-29T20:48:28.789Z,67.04
2023-04-29T20:50:52.323Z,67.64
2023-04-29T20:53:16.920Z,68.34
2023-04-29T20:55:40.561Z,67.94
2023-04-29T20:58:04.122Z,69.06
2023-04-29T21:00:29.034Z,67.89
2023-04-29T21:02:52.709Z,67.69
2023-04-29T21:05:16.395Z,68.35
2023-04-29T21:07:39.987Z,68.14
2023-04-29T21:10:03.575Z,68.65
2023-04-29T21:12:27.221Z,69.40
2023-04-29T21:14:50.754Z,70.68
2023-04-29T21:17:16.392Z,70.40
2023-04-29T21:19:39.947Z,71.98
2023-04-29T21:22:03.530Z,68.61
2023-04-29T21:24:28.665Z,67.86
2023-04-29T21:26:52.324Z,67.67
2023-04-29T21:29:15.910Z,67.87
2023-04-29T21:31:39.581Z,67.21
2023-04-29T21:34:04.498Z,67.41
2023-04-29T21:36:28.131Z,66.03
2023-04-29T21:38:52.815Z,66.67
2023-04-29T21:41:22.711Z,67.08
2023-04-29T21:43:46.280Z,66.25
2023-04-29T21:46:09.898Z,65.94
2023-04-29T21:48:34.126Z,66.72
2023-04-29T21:51:00.204Z,66.06
2023-04-29T21:53:23.741Z,66.10
2023-04-29T21:55:47.348Z,67.15
2023-04-29T21:58:11.630Z,66.83
2023-04-29T22:00:36.605Z,67.31
2023-04-29T22:03:01.081Z,67.95
2023-04-29T22:05:24.840Z,67.26
2023-04-29T22:47:23.641Z,69.16
2023-04-29T22:49:47.593Z,68.60
2023-04-29T22:52:11.203Z,67.88
2023-04-29T23:13:32.059Z,66.27
2023-04-29T23:15:58.296Z,65.67
2023-04-29T23:18:21.929Z,65.87
2023-04-29T23:20:48.374Z,66.26
2023-04-29T23:23:11.941Z,65.36
2023-04-29T23:25:36.581Z,65.86
2023-04-29T23:28:00.133Z,64.89
2023-04-29T23:30:25.703Z,65.34
2023-04-29T23:32:49.324Z,65.54
2023-04-29T23:35:13.096Z,65.15
2023-04-29T23:55:24.554Z,68.41
2023-04-29T23:57:48.313Z,66.92
